sensor_id;sensor_type;location;lat;lon;timestamp;temperature;humidity
70550;DHT22;58101;48.658;2.328;2023-05-13T00:01:00;12.80;99.90
70550;DHT22;58101;48.658;2.328;2023-05-13T00:03:29;12.80;99.90
70550;DHT22;58101;48.658;2.328;2023-05-13T00:06:06;12.80;99.90
70550;DHT22;58101;48.658;2.328;2023-05-13T00:08:32;12.90;99.90
70550;DHT22;58101;48.658;2.328;2023-05-13T00:11:07;12.90;99.90
70550;DHT22;58101;48.658;2.328;2023-05-13T00:13:38;12.90;99.90
70550;DHT22;58101;48.658;2.328;2023-05-13T00:16:04;12.90;99.90
70550;DHT22;58101;48.658;2.328;2023-05-13T00:18:30;12.80;99.90
70550;DHT22;58101;48.658;2.328;2023-05-13T00:20:58;12.80;99.90
70550;DHT22;58101;48.658;2.328;2023-05-13T00:23:24;12.80;99.90
70550;DHT22;58101;48.658;2.328;2023-05-13T00:25:50;12.80;99.90
70550;DHT22;58101;48.658;2.328;2023-05-13T00:28:15;12.80;99.90
70550;DHT22;58101;48.658;2.328;2023-05-13T00:30:41;12.80;99.90
70550;DHT22;58101;48.658;2.328;2023-05-13T00:33:08;12.80;99.90
70550;DHT22;58101;48.658;2.328;2023-05-13T00:35:33;12.80;99.90
70550;DHT22;58101;48.658;2.328;2023-05-13T00:38:00;12.80;99.90
70550;DHT22;58101;48.658;2.328;2023-05-13T00:40:25;12.80;99.90
70550;DHT22;58101;48.658;2.328;2023-05-13T00:42:52;12.80;99.90
70550;DHT22;58101;48.658;2.328;2023-05-13T00:45:18;12.80;99.90
70550;DHT22;58101;48.658;2.328;2023-05-13T00:47:44;12.80;99.90
70550;DHT22;58101;48.658;2.328;2023-05-13T00:50:10;12.80;99.90
70550;DHT22;58101;48.658;2.328;2023-05-13T00:52:40;12.80;99.90
70550;DHT22;58101;48.658;2.328;2023-05-13T00:55:07;12.90;99.90
70550;DHT22;58101;48.658;2.328;2023-05-13T00:57:33;12.80;99.90
70550;DHT22;58101;48.658;2.328;2023-05-13T01:00:00;12.80;99.90
70550;DHT22;58101;48.658;2.328;2023-05-13T01:11:02;12.70;99.90
70550;DHT22;58101;48.658;2.328;2023-05-13T01:13:35;12.70;99.90
70550;DHT22;58101;48.658;2.328;2023-05-13T01:19:03;12.60;99.90
70550;DHT22;58101;48.658;2.328;2023-05-13T01:21:34;12.50;99.90
70550;DHT22;58101;48.658;2.328;2023-05-13T01:24:01;12.40;99.90
70550;DHT22;58101;48.658;2.328;2023-05-13T01:26:26;12.40;99.90
70550;DHT22;58101;48.658;2.328;2023-05-13T01:28:52;12.30;99.90
70550;DHT22;58101;48.658;2.328;2023-05-13T01:31:19;12.30;99.90
70550;DHT22;58101;48.658;2.328;2023-05-13T01:33:46;12.30;99.90
70550;DHT22;58101;48.658;2.328;2023-05-13T01:36:12;12.40;99.90
70550;DHT22;58101;48.658;2.328;2023-05-13T01:38:38;12.20;99.90
70550;DHT22;58101;48.658;2.328;2023-05-13T01:41:04;12.20;99.90
70550;DHT22;58101;48.658;2.328;2023-05-13T01:43:30;12.10;99.90
70550;DHT22;58101;48.658;2.328;2023-05-13T01:45:56;12.20;99.90
70550;DHT22;58101;48.658;2.328;2023-05-13T01:48:25;12.20;99.90
70550;DHT22;58101;48.658;2.328;2023-05-13T01:50:51;12.20;99.90
70550;DHT22;58101;48.658;2.328;2023-05-13T01:53:20;12.20;99.90
70550;DHT22;58101;48.658;2.328;2023-05-13T01:55:45;12.20;99.90
70550;DHT22;58101;48.658;2.328;2023-05-13T01:58:11;12.20;99.90
70550;DHT22;58101;48.658;2.328;2023-05-13T02:00:36;12.30;99.90
70550;DHT22;58101;48.658;2.328;2023-05-13T02:03:02;12.30;99.90
70550;DHT22;58101;48.658;2.328;2023-05-13T02:05:28;12.30;99.90
70550;DHT22;58101;48.658;2.328;2023-05-13T02:07:56;12.30;99.90
70550;DHT22;58101;48.658;2.328;2023-05-13T02:10:21;12.30;99.90
70550;DHT22;58101;48.658;2.328;2023-05-13T02:12:47;12.30;99.90
70550;DHT22;58101;48.658;2.328;2023-05-13T02:15:12;12.30;99.90
70550;DHT22;58101;48.658;2.328;2023-05-13T02:17:58;12.30;99.90
70550;DHT22;58101;48.658;2.328;2023-05-13T02:20:24;12.30;99.90
70550;DHT22;58101;48.658;2.328;2023-05-13T02:22:50;12.30;99.90
70550;DHT22;58101;48.658;2.328;2023-05-13T02:25:16;12.40;99.90
70550;DHT22;58101;48.658;2.328;2023-05-13T02:27:42;12.20;99.90
70550;DHT22;58101;48.658;2.328;2023-05-13T02:30:08;12.20;99.90
70550;DHT22;58101;48.658;2.328;2023-05-13T02:32:33;12.20;99.90
70550;DHT22;58101;48.658;2.328;2023-05-13T02:34:59;12.30;99.90
70550;DHT22;58101;48.658;2.328;2023-05-13T02:37:25;12.30;99.90
70550;DHT22;58101;48.658;2.328;2023-05-13T02:39:51;12.40;99.90
70550;DHT22;58101;48.658;2.328;2023-05-13T02:42:16;12.30;99.90
70550;DHT22;58101;48.658;2.328;2023-05-13T02:44:42;12.30;99.90
70550;DHT22;58101;48.658;2.328;2023-05-13T02:47:08;12.40;99.90
70550;DHT22;58101;48.658;2.328;2023-05-13T02:49:33;12.40;99.90
70550;DHT22;58101;48.658;2.328;2023-05-13T02:51:59;12.40;99.90
70550;DHT22;58101;48.658;2.328;2023-05-13T02:54:24;12.40;99.90
70550;DHT22;58101;48.658;2.328;2023-05-13T02:56:50;12.50;99.90
70550;DHT22;58101;48.658;2.328;2023-05-13T02:59:16;12.50;99.90
70550;DHT22;58101;48.658;2.328;2023-05-13T03:01:41;12.50;99.90
70550;DHT22;58101;48.658;2.328;2023-05-13T03:04:10;12.50;99.90
70550;DHT22;58101;48.658;2.328;2023-05-13T03:06:36;12.60;99.90
70550;DHT22;58101;48.658;2.328;2023-05-13T03:09:02;12.60;99.90
70550;DHT22;58101;48.658;2.328;2023-05-13T03:11:27;12.60;99.90
70550;DHT22;58101;48.658;2.328;2023-05-13T03:13:53;12.60;99.90
70550;DHT22;58101;48.658;2.328;2023-05-13T03:16:19;12.60;99.90
70550;DHT22;58101;48.658;2.328;2023-05-13T03:18:48;12.60;99.90
70550;DHT22;58101;48.658;2.328;2023-05-13T03:21:13;12.70;99.90
70550;DHT22;58101;48.658;2.328;2023-05-13T03:23:39;12.70;99.90
70550;DHT22;58101;48.658;2.328;2023-05-13T03:26:04;12.70;99.90
70550;DHT22;58101;48.658;2.328;2023-05-13T03:28:30;12.70;99.90
70550;DHT22;58101;48.658;2.328;2023-05-13T03:30:56;12.70;99.90
70550;DHT22;58101;48.658;2.328;2023-05-13T03:33:21;12.70;99.90
70550;DHT22;58101;48.658;2.328;2023-05-13T03:35:47;12.80;99.90
70550;DHT22;58101;48.658;2.328;2023-05-13T03:38:13;12.70;99.90
70550;DHT22;58101;48.658;2.328;2023-05-13T03:40:39;12.70;99.90
70550;DHT22;58101;48.658;2.328;2023-05-13T03:43:05;12.70;99.90
70550;DHT22;58101;48.658;2.328;2023-05-13T03:45:30;12.60;99.90
70550;DHT22;58101;48.658;2.328;2023-05-13T03:47:56;12.50;99.90
70550;DHT22;58101;48.658;2.328;2023-05-13T03:50:22;12.60;99.90
70550;DHT22;58101;48.658;2.328;2023-05-13T03:52:47;12.40;99.90
70550;DHT22;58101;48.658;2.328;2023-05-13T03:55:13;12.40;99.90
70550;DHT22;58101;48.658;2.328;2023-05-13T03:57:41;12.40;99.90
70550;DHT22;58101;48.658;2.328;2023-05-13T04:00:07;12.40;99.90
70550;DHT22;58101;48.658;2.328;2023-05-13T04:02:34;12.30;99.90
70550;DHT22;58101;48.658;2.328;2023-05-13T04:05:00;12.30;99.90
70550;DHT22;58101;48.658;2.328;2023-05-13T04:07:25;12.30;99.90
70550;DHT22;58101;48.658;2.328;2023-05-13T04:09:51;12.30;99.90
70550;DHT22;58101;48.658;2.328;2023-05-13T04:12:16;12.30;99.90
70550;DHT22;58101;48.658;2.328;2023-05-13T04:14:42;12.30;99.90
70550;DHT22;58101;48.658;2.328;2023-05-13T04:17:08;12.30;99.90
70550;DHT22;58101;48.658;2.328;2023-05-13T04:19:33;12.30;99.90
70550;DHT22;58101;48.658;2.328;2023-05-13T04:21:59;12.30;99.90
70550;DHT22;58101;48.658;2.328;2023-05-13T04:24:25;12.20;99.90
70550;DHT22;58101;48.658;2.328;2023-05-13T04:26:50;12.20;99.90
70550;DHT22;58101;48.658;2.328;2023-05-13T04:29:16;12.30;99.90
70550;DHT22;58101;48.658;2.328;2023-05-13T04:34:37;12.30;99.90
70550;DHT22;58101;48.658;2.328;2023-05-13T04:37:03;12.20;99.90
70550;DHT22;58101;48.658;2.328;2023-05-13T04:39:28;12.30;99.90
70550;DHT22;58101;48.658;2.328;2023-05-13T04:41:57;12.30;99.90
70550;DHT22;58101;48.658;2.328;2023-05-13T04:44:23;12.30;99.90
70550;DHT22;58101;48.658;2.328;2023-05-13T04:50:10;12.40;99.90
70550;DHT22;58101;48.658;2.328;2023-05-13T04:52:36;12.50;99.90
70550;DHT22;58101;48.658;2.328;2023-05-13T04:55:02;12.50;99.90
70550;DHT22;58101;48.658;2.328;2023-05-13T04:57:28;12.40;99.90
70550;DHT22;58101;48.658;2.328;2023-05-13T04:59:53;12.50;99.90
70550;DHT22;58101;48.658;2.328;2023-05-13T05:02:19;12.40;99.90
70550;DHT22;58101;48.658;2.328;2023-05-13T05:04:47;12.50;99.90
70550;DHT22;58101;48.658;2.328;2023-05-13T05:07:13;12.50;99.90
70550;DHT22;58101;48.658;2.328;2023-05-13T05:09:42;12.60;99.90
70550;DHT22;58101;48.658;2.328;2023-05-13T05:12:11;12.60;99.90
70550;DHT22;58101;48.658;2.328;2023-05-13T05:14:36;12.70;99.90
70550;DHT22;58101;48.658;2.328;2023-05-13T05:17:11;12.70;99.90
70550;DHT22;58101;48.658;2.328;2023-05-13T05:19:37;12.70;99.90
70550;DHT22;58101;48.658;2.328;2023-05-13T05:22:03;12.70;99.90
70550;DHT22;58101;48.658;2.328;2023-05-13T05:24:29;12.70;99.90
70550;DHT22;58101;48.658;2.328;2023-05-13T05:26:54;12.70;99.90
70550;DHT22;58101;48.658;2.328;2023-05-13T05:29:21;12.70;99.90
70550;DHT22;58101;48.658;2.328;2023-05-13T05:31:47;12.70;99.90
70550;DHT22;58101;48.658;2.328;2023-05-13T05:34:12;12.70;99.90
70550;DHT22;58101;48.658;2.328;2023-05-13T05:36:38;12.70;99.90
70550;DHT22;58101;48.658;2.328;2023-05-13T05:39:04;12.80;99.90
70550;DHT22;58101;48.658;2.328;2023-05-13T05:41:32;12.80;99.90
70550;DHT22;58101;48.658;2.328;2023-05-13T05:43:58;12.80;99.90
70550;DHT22;58101;48.658;2.328;2023-05-13T05:46:23;12.80;99.90
70550;DHT22;58101;48.658;2.328;2023-05-13T05:48:49;12.80;99.90
70550;DHT22;58101;48.658;2.328;2023-05-13T05:51:15;12.80;99.90
70550;DHT22;58101;48.658;2.328;2023-05-13T05:53:41;12.80;99.90
70550;DHT22;58101;48.658;2.328;2023-05-13T05:56:10;12.80;99.90
70550;DHT22;58101;48.658;2.328;2023-05-13T05:58:35;12.90;99.90
70550;DHT22;58101;48.658;2.328;2023-05-13T06:01:01;12.90;99.90
70550;DHT22;58101;48.658;2.328;2023-05-13T06:03:27;13.00;99.90
70550;DHT22;58101;48.658;2.328;2023-05-13T06:05:53;13.10;99.90
70550;DHT22;58101;48.658;2.328;2023-05-13T06:08:21;13.20;99.90
70550;DHT22;58101;48.658;2.328;2023-05-13T06:11:28;13.40;99.90
70550;DHT22;58101;48.658;2.328;2023-05-13T14:20:49;24.70;44.30
70550;DHT22;58101;48.658;2.328;2023-05-13T14:23:20;24.80;42.50
70550;DHT22;58101;48.658;2.328;2023-05-13T14:28:54;25.00;43.30
70550;DHT22;58101;48.658;2.328;2023-05-13T14:34:13;24.60;40.60
70550;DHT22;58101;48.658;2.328;2023-05-13T14:46:35;24.50;42.60
70550;DHT22;58101;48.658;2.328;2023-05-13T14:49:06;24.60;42.00
70550;DHT22;58101;48.658;2.328;2023-05-13T14:54:53;24.40;41.80
70550;DHT22;58101;48.658;2.328;2023-05-13T14:57:25;24.20;42.00
70550;DHT22;58101;48.658;2.328;2023-05-13T15:03:07;24.00;43.00
70550;DHT22;58101;48.658;2.328;2023-05-13T15:09:03;24.10;43.00
70550;DHT22;58101;48.658;2.328;2023-05-13T15:11:30;24.30;42.70
70550;DHT22;58101;48.658;2.328;2023-05-13T15:13:55;24.50;42.60
70550;DHT22;58101;48.658;2.328;2023-05-13T15:16:21;24.70;41.20
70550;DHT22;58101;48.658;2.328;2023-05-13T15:18:47;24.80;39.70
70550;DHT22;58101;48.658;2.328;2023-05-13T15:21:14;24.90;39.60
70550;DHT22;58101;48.658;2.328;2023-05-13T15:24:11;25.00;39.20
70550;DHT22;58101;48.658;2.328;2023-05-13T15:26:36;25.10;38.90
70550;DHT22;58101;48.658;2.328;2023-05-13T15:29:02;25.00;39.20
70550;DHT22;58101;48.658;2.328;2023-05-13T15:31:29;24.70;40.30
70550;DHT22;58101;48.658;2.328;2023-05-13T15:37:01;24.30;42.60
70550;DHT22;58101;48.658;2.328;2023-05-13T15:39:53;24.10;42.50
70550;DHT22;58101;48.658;2.328;2023-05-13T15:42:19;24.10;42.90
70550;DHT22;58101;48.658;2.328;2023-05-13T15:44:48;24.00;42.70
70550;DHT22;58101;48.658;2.328;2023-05-13T16:01:31;24.10;41.70
70550;DHT22;58101;48.658;2.328;2023-05-13T16:07:39;23.90;42.00
70550;DHT22;58101;48.658;2.328;2023-05-13T16:10:07;23.70;41.90
70550;DHT22;58101;48.658;2.328;2023-05-13T16:12:33;23.40;41.40
70550;DHT22;58101;48.658;2.328;2023-05-13T16:15:06;23.20;43.10
70550;DHT22;58101;48.658;2.328;2023-05-13T16:17:34;22.60;43.30
70550;DHT22;58101;48.658;2.328;2023-05-13T16:20:00;21.90;44.20
70550;DHT22;58101;48.658;2.328;2023-05-13T16:22:34;21.40;45.40
70550;DHT22;58101;48.658;2.328;2023-05-13T16:25:03;20.90;45.70
70550;DHT22;58101;48.658;2.328;2023-05-13T16:27:30;20.60;47.50
70550;DHT22;58101;48.658;2.328;2023-05-13T16:30:00;20.40;47.90
70550;DHT22;58101;48.658;2.328;2023-05-13T16:32:27;20.30;48.50
70550;DHT22;58101;48.658;2.328;2023-05-13T16:34:53;20.20;48.80
70550;DHT22;58101;48.658;2.328;2023-05-13T16:37:18;20.10;49.60
70550;DHT22;58101;48.658;2.328;2023-05-13T16:39:47;19.80;50.90
70550;DHT22;58101;48.658;2.328;2023-05-13T16:42:15;19.60;53.00
70550;DHT22;58101;48.658;2.328;2023-05-13T16:44:41;19.40;55.60
70550;DHT22;58101;48.658;2.328;2023-05-13T16:47:27;19.10;58.80
70550;DHT22;58101;48.658;2.328;2023-05-13T16:49:56;18.70;73.20
70550;DHT22;58101;48.658;2.328;2023-05-13T16:52:22;18.30;80.60
70550;DHT22;58101;48.658;2.328;2023-05-13T16:55:15;18.10;86.80
70550;DHT22;58101;48.658;2.328;2023-05-13T16:57:50;18.00;96.20
70550;DHT22;58101;48.658;2.328;2023-05-13T17:03:09;17.60;99.90
70550;DHT22;58101;48.658;2.328;2023-05-13T17:05:43;17.80;99.90
70550;DHT22;58101;48.658;2.328;2023-05-13T17:11:21;17.50;99.90
70550;DHT22;58101;48.658;2.328;2023-05-13T17:14:12;17.50;99.90
70550;DHT22;58101;48.658;2.328;2023-05-13T17:16:37;17.50;99.90
70550;DHT22;58101;48.658;2.328;2023-05-13T17:19:03;17.50;99.90
70550;DHT22;58101;48.658;2.328;2023-05-13T17:21:29;17.60;99.90
70550;DHT22;58101;48.658;2.328;2023-05-13T17:23:54;17.60;99.90
70550;DHT22;58101;48.658;2.328;2023-05-13T17:28:48;17.60;98.30
70550;DHT22;58101;48.658;2.328;2023-05-13T17:31:16;17.70;99.90
70550;DHT22;58101;48.658;2.328;2023-05-13T17:33:42;17.80;98.40
70550;DHT22;58101;48.658;2.328;2023-05-13T17:36:08;17.70;96.80
70550;DHT22;58101;48.658;2.328;2023-05-13T17:38:35;17.70;92.20
70550;DHT22;58101;48.658;2.328;2023-05-13T17:47:02;17.80;94.10
70550;DHT22;58101;48.658;2.328;2023-05-13T17:49:28;17.80;91.20
70550;DHT22;58101;48.658;2.328;2023-05-13T17:51:53;17.90;92.30
70550;DHT22;58101;48.658;2.328;2023-05-13T17:54:19;17.80;87.80
70550;DHT22;58101;48.658;2.328;2023-05-13T17:56:45;17.80;90.40
70550;DHT22;58101;48.658;2.328;2023-05-13T17:59:10;17.90;90.20
70550;DHT22;58101;48.658;2.328;2023-05-13T18:01:36;17.90;91.30
70550;DHT22;58101;48.658;2.328;2023-05-13T18:04:02;17.90;90.00
70550;DHT22;58101;48.658;2.328;2023-05-13T18:06:36;17.90;85.50
70550;DHT22;58101;48.658;2.328;2023-05-13T18:09:08;18.00;83.70
70550;DHT22;58101;48.658;2.328;2023-05-13T18:11:33;17.90;77.80
70550;DHT22;58101;48.658;2.328;2023-05-13T18:13:59;17.80;81.70
70550;DHT22;58101;48.658;2.328;2023-05-13T18:16:25;17.80;87.00
70550;DHT22;58101;48.658;2.328;2023-05-13T18:18:50;17.70;88.80
70550;DHT22;58101;48.658;2.328;2023-05-13T18:21:25;17.60;90.70
70550;DHT22;58101;48.658;2.328;2023-05-13T18:23:55;17.60;90.90
70550;DHT22;58101;48.658;2.328;2023-05-13T18:26:21;17.60;93.40
70550;DHT22;58101;48.658;2.328;2023-05-13T18:28:47;17.60;93.20
70550;DHT22;58101;48.658;2.328;2023-05-13T18:34:35;17.60;91.20
70550;DHT22;58101;48.658;2.328;2023-05-13T18:37:01;17.60;90.40
70550;DHT22;58101;48.658;2.328;2023-05-13T18:39:26;17.50;90.50
70550;DHT22;58101;48.658;2.328;2023-05-13T18:42:04;17.50;89.40
70550;DHT22;58101;48.658;2.328;2023-05-13T18:44:33;17.50;88.00
70550;DHT22;58101;48.658;2.328;2023-05-13T18:46:58;17.50;90.40
70550;DHT22;58101;48.658;2.328;2023-05-13T18:49:24;17.40;90.20
70550;DHT22;58101;48.658;2.328;2023-05-13T18:51:58;17.50;90.20
70550;DHT22;58101;48.658;2.328;2023-05-13T18:54:24;17.50;86.90
70550;DHT22;58101;48.658;2.328;2023-05-13T18:56:57;17.50;86.50
70550;DHT22;58101;48.658;2.328;2023-05-13T18:59:25;17.60;88.10
70550;DHT22;58101;48.658;2.328;2023-05-13T19:05:17;17.50;81.50
70550;DHT22;58101;48.658;2.328;2023-05-13T19:07:43;17.40;81.20
70550;DHT22;58101;48.658;2.328;2023-05-13T19:10:14;17.40;80.80
70550;DHT22;58101;48.658;2.328;2023-05-13T19:12:40;17.30;77.10
70550;DHT22;58101;48.658;2.328;2023-05-13T19:15:09;17.30;79.40
70550;DHT22;58101;48.658;2.328;2023-05-13T19:17:38;17.20;77.80
70550;DHT22;58101;48.658;2.328;2023-05-13T19:20:11;17.10;78.60
70550;DHT22;58101;48.658;2.328;2023-05-13T19:22:40;17.00;79.70
70550;DHT22;58101;48.658;2.328;2023-05-13T19:25:06;17.00;80.50
70550;DHT22;58101;48.658;2.328;2023-05-13T19:27:38;16.90;81.20
70550;DHT22;58101;48.658;2.328;2023-05-13T19:30:04;16.90;82.90
70550;DHT22;58101;48.658;2.328;2023-05-13T19:32:30;16.80;84.10
70550;DHT22;58101;48.658;2.328;2023-05-13T19:34:56;16.80;84.40
70550;DHT22;58101;48.658;2.328;2023-05-13T19:40:05;16.70;85.50
70550;DHT22;58101;48.658;2.328;2023-05-13T19:42:31;16.70;87.80
70550;DHT22;58101;48.658;2.328;2023-05-13T19:47:54;16.60;89.30
70550;DHT22;58101;48.658;2.328;2023-05-13T19:50:30;16.50;90.50
70550;DHT22;58101;48.658;2.328;2023-05-13T19:52:56;16.50;91.10
70550;DHT22;58101;48.658;2.328;2023-05-13T19:55:37;16.40;91.20
70550;DHT22;58101;48.658;2.328;2023-05-13T20:08:15;16.30;91.00
70550;DHT22;58101;48.658;2.328;2023-05-13T20:10:43;16.30;90.80
70550;DHT22;58101;48.658;2.328;2023-05-13T20:13:41;16.30;90.40
70550;DHT22;58101;48.658;2.328;2023-05-13T20:16:09;16.30;91.20
70550;DHT22;58101;48.658;2.328;2023-05-13T20:18:35;16.20;90.80
70550;DHT22;58101;48.658;2.328;2023-05-13T20:21:24;16.20;92.00
70550;DHT22;58101;48.658;2.328;2023-05-13T20:23:49;16.20;91.70
70550;DHT22;58101;48.658;2.328;2023-05-13T20:26:27;16.20;91.80
70550;DHT22;58101;48.658;2.328;2023-05-13T20:50:31;16.00;99.90
70550;DHT22;58101;48.658;2.328;2023-05-13T20:55:28;16.00;99.90
70550;DHT22;58101;48.658;2.328;2023-05-13T20:57:53;16.00;99.90
70550;DHT22;58101;48.658;2.328;2023-05-13T21:00:19;16.00;99.90
70550;DHT22;58101;48.658;2.328;2023-05-13T21:02:45;16.00;99.90
70550;DHT22;58101;48.658;2.328;2023-05-13T21:05:11;16.00;99.90
70550;DHT22;58101;48.658;2.328;2023-05-13T21:10:59;16.00;99.90
70550;DHT22;58101;48.658;2.328;2023-05-13T21:13:24;16.00;99.90
70550;DHT22;58101;48.658;2.328;2023-05-13T21:15:50;16.00;99.90
70550;DHT22;58101;48.658;2.328;2023-05-13T21:18:16;16.00;99.90
70550;DHT22;58101;48.658;2.328;2023-05-13T21:20:43;16.00;99.90
70550;DHT22;58101;48.658;2.328;2023-05-13T21:23:17;16.00;99.90
70550;DHT22;58101;48.658;2.328;2023-05-13T21:25:43;16.00;99.90
70550;DHT22;58101;48.658;2.328;2023-05-13T21:28:34;16.00;99.90
70550;DHT22;58101;48.658;2.328;2023-05-13T21:31:00;15.90;99.90
70550;DHT22;58101;48.658;2.328;2023-05-13T21:33:50;15.90;99.90
70550;DHT22;58101;48.658;2.328;2023-05-13T21:36:16;15.90;99.90
70550;DHT22;58101;48.658;2.328;2023-05-13T21:38:42;15.90;99.90
70550;DHT22;58101;48.658;2.328;2023-05-13T21:41:07;15.90;99.90
70550;DHT22;58101;48.658;2.328;2023-05-13T21:43:33;15.90;99.90
70550;DHT22;58101;48.658;2.328;2023-05-13T21:45:58;15.90;99.90
70550;DHT22;58101;48.658;2.328;2023-05-13T21:48:24;15.90;99.90
70550;DHT22;58101;48.658;2.328;2023-05-13T21:50:50;15.90;99.90
70550;DHT22;58101;48.658;2.328;2023-05-13T21:53:15;15.80;99.90
70550;DHT22;58101;48.658;2.328;2023-05-13T21:55:50;15.80;99.90
70550;DHT22;58101;48.658;2.328;2023-05-13T21:58:17;15.70;99.90
70550;DHT22;58101;48.658;2.328;2023-05-13T22:00:43;15.70;99.90
70550;DHT22;58101;48.658;2.328;2023-05-13T22:03:15;15.70;99.90
70550;DHT22;58101;48.658;2.328;2023-05-13T22:05:40;15.60;99.90
70550;DHT22;58101;48.658;2.328;2023-05-13T22:08:08;15.60;99.90
70550;DHT22;58101;48.658;2.328;2023-05-13T22:10:35;15.50;99.90
70550;DHT22;58101;48.658;2.328;2023-05-13T22:13:01;15.40;99.90
70550;DHT22;58101;48.658;2.328;2023-05-13T22:15:26;15.50;99.90
70550;DHT22;58101;48.658;2.328;2023-05-13T22:17:58;15.30;99.90
70550;DHT22;58101;48.658;2.328;2023-05-13T22:20:23;15.30;99.90
70550;DHT22;58101;48.658;2.328;2023-05-13T22:22:49;15.20;99.90
70550;DHT22;58101;48.658;2.328;2023-05-13T22:25:14;15.10;99.90
70550;DHT22;58101;48.658;2.328;2023-05-13T22:27:40;15.20;99.90
70550;DHT22;58101;48.658;2.328;2023-05-13T22:30:39;15.10;99.90
70550;DHT22;58101;48.658;2.328;2023-05-13T22:36:21;15.00;99.90
70550;DHT22;58101;48.658;2.328;2023-05-13T22:38:46;15.00;99.90
70550;DHT22;58101;48.658;2.328;2023-05-13T22:41:12;14.90;99.90
70550;DHT22;58101;48.658;2.328;2023-05-13T22:44:03;14.90;99.90
70550;DHT22;58101;48.658;2.328;2023-05-13T22:46:28;14.90;99.90
70550;DHT22;58101;48.658;2.328;2023-05-13T22:48:54;14.80;99.90
70550;DHT22;58101;48.658;2.328;2023-05-13T22:51:20;14.80;99.90
70550;DHT22;58101;48.658;2.328;2023-05-13T22:54:19;14.70;99.90
70550;DHT22;58101;48.658;2.328;2023-05-13T22:56:45;14.70;99.90
70550;DHT22;58101;48.658;2.328;2023-05-13T22:59:11;14.70;99.90
70550;DHT22;58101;48.658;2.328;2023-05-13T23:01:36;14.60;99.90
70550;DHT22;58101;48.658;2.328;2023-05-13T23:04:03;14.60;99.90
70550;DHT22;58101;48.658;2.328;2023-05-13T23:06:29;14.60;99.90
70550;DHT22;58101;48.658;2.328;2023-05-13T23:12:17;14.50;99.90
70550;DHT22;58101;48.658;2.328;2023-05-13T23:14:43;14.50;99.90
70550;DHT22;58101;48.658;2.328;2023-05-13T23:17:08;14.40;99.90
70550;DHT22;58101;48.658;2.328;2023-05-13T23:19:34;14.40;99.90
70550;DHT22;58101;48.658;2.328;2023-05-13T23:22:02;14.40;99.90
70550;DHT22;58101;48.658;2.328;2023-05-13T23:24:49;14.40;99.90
70550;DHT22;58101;48.658;2.328;2023-05-13T23:27:15;14.30;99.90
70550;DHT22;58101;48.658;2.328;2023-05-13T23:29:41;14.30;99.90
70550;DHT22;58101;48.658;2.328;2023-05-13T23:32:07;14.30;99.90
70550;DHT22;58101;48.658;2.328;2023-05-13T23:34:32;14.30;99.90
70550;DHT22;58101;48.658;2.328;2023-05-13T23:37:35;14.30;99.90
70550;DHT22;58101;48.658;2.328;2023-05-13T23:40:10;14.20;99.90
70550;DHT22;58101;48.658;2.328;2023-05-13T23:45:42;14.10;99.90
70550;DHT22;58101;48.658;2.328;2023-05-13T23:48:07;14.10;99.90
70550;DHT22;58101;48.658;2.328;2023-05-13T23:50:36;14.10;99.90
70550;DHT22;58101;48.658;2.328;2023-05-13T23:53:02;14.00;99.90
70550;DHT22;58101;48.658;2.328;2023-05-13T23:55:27;14.00;99.90
70550;DHT22;58101;48.658;2.328;2023-05-13T23:58:16;14.00;99.90
